sensor_id;sensor_type;location;lat;lon;timestamp;pressure;altitude;pressure_sealevel;temperature;humidity
77799;BME280;66989;50.426;15.352;2023-03-05T00:00:08;98072.63;;;1.61;82.62
77799;BME280;66989;50.426;15.352;2023-03-05T00:02:34;98076.06;;;1.61;82.39
77799;BME280;66989;50.426;15.352;2023-03-05T00:04:59;98073.38;;;1.63;82.76
77799;BME280;66989;50.426;15.352;2023-03-05T00:07:25;98068.25;;;1.61;82.37
77799;BME280;66989;50.426;15.352;2023-03-05T00:09:50;98064.91;;;1.59;83.19
77799;BME280;66989;50.426;15.352;2023-03-05T00:12:15;98063.13;;;1.60;83.21
77799;BME280;66989;50.426;15.352;2023-03-05T00:14:41;98050.25;;;1.57;82.72
77799;BME280;66989;50.426;15.352;2023-03-05T00:17:06;98054.50;;;1.59;83.22
77799;BME280;66989;50.426;15.352;2023-03-05T00:19:32;98057.16;;;1.58;83.66
77799;BME280;66989;50.426;15.352;2023-03-05T00:21:58;98056.38;;;1.56;83.54
77799;BME280;66989;50.426;15.352;2023-03-05T00:24:23;98057.22;;;1.56;84.14
77799;BME280;66989;50.426;15.352;2023-03-05T00:26:48;98052.03;;;1.56;83.59
77799;BME280;66989;50.426;15.352;2023-03-05T00:29:16;98047.66;;;1.57;83.84
77799;BME280;66989;50.426;15.352;2023-03-05T00:31:46;98049.34;;;1.58;83.87
77799;BME280;66989;50.426;15.352;2023-03-05T00:34:14;98045.16;;;1.55;84.36
77799;BME280;66989;50.426;15.352;2023-03-05T00:36:42;98041.75;;;1.53;84.44
77799;BME280;66989;50.426;15.352;2023-03-05T00:39:09;98043.59;;;1.51;84.77
77799;BME280;66989;50.426;15.352;2023-03-05T00:41:34;98040.13;;;1.51;84.80
77799;BME280;66989;50.426;15.352;2023-03-05T00:44:00;98031.69;;;1.45;84.61
77799;BME280;66989;50.426;15.352;2023-03-05T00:46:25;98029.94;;;1.46;84.57
77799;BME280;66989;50.426;15.352;2023-03-05T00:48:55;98029.94;;;1.46;84.87
77799;BME280;66989;50.426;15.352;2023-03-05T00:51:20;98026.56;;;1.44;85.11
77799;BME280;66989;50.426;15.352;2023-03-05T00:53:46;98019.66;;;1.43;84.85
77799;BME280;66989;50.426;15.352;2023-03-05T00:56:11;98019.81;;;1.40;85.08
77799;BME280;66989;50.426;15.352;2023-03-05T00:58:37;98021.50;;;1.41;85.21
77799;BME280;66989;50.426;15.352;2023-03-05T01:01:04;98018.06;;;1.40;85.40
77799;BME280;66989;50.426;15.352;2023-03-05T01:03:31;98019.81;;;1.40;85.77
77799;BME280;66989;50.426;15.352;2023-03-05T01:05:56;98014.63;;;1.40;85.32
77799;BME280;66989;50.426;15.352;2023-03-05T01:08:23;98018.91;;;1.41;85.14
77799;BME280;66989;50.426;15.352;2023-03-05T01:10:48;98009.50;;;1.38;86.10
77799;BME280;66989;50.426;15.352;2023-03-05T01:13:13;98014.75;;;1.37;85.63
77799;BME280;66989;50.426;15.352;2023-03-05T01:15:39;98003.59;;;1.35;85.70
77799;BME280;66989;50.426;15.352;2023-03-05T01:18:04;98003.59;;;1.35;85.92
77799;BME280;66989;50.426;15.352;2023-03-05T01:20:30;98007.03;;;1.35;85.93
77799;BME280;66989;50.426;15.352;2023-03-05T01:22:55;98000.91;;;1.36;85.45
77799;BME280;66989;50.426;15.352;2023-03-05T01:25:23;97999.13;;;1.38;85.23
77799;BME280;66989;50.426;15.352;2023-03-05T01:27:49;97995.59;;;1.39;84.96
77799;BME280;66989;50.426;15.352;2023-03-05T01:30:14;97990.41;;;1.39;84.59
77799;BME280;66989;50.426;15.352;2023-03-05T01:32:40;97993.00;;;1.39;84.98
77799;BME280;66989;50.426;15.352;2023-03-05T01:35:06;97987.00;;;1.37;85.34
77799;BME280;66989;50.426;15.352;2023-03-05T01:37:32;97983.56;;;1.37;84.73
77799;BME280;66989;50.426;15.352;2023-03-05T01:39:57;97985.41;;;1.35;84.41
77799;BME280;66989;50.426;15.352;2023-03-05T01:42:22;97983.72;;;1.34;84.76
77799;BME280;66989;50.426;15.352;2023-03-05T01:45:20;97987.00;;;1.37;84.06
77799;BME280;66989;50.426;15.352;2023-03-05T01:47:46;97982.63;;;1.39;83.94
77799;BME280;66989;50.426;15.352;2023-03-05T01:50:20;97983.47;;;1.40;83.44
77799;BME280;66989;50.426;15.352;2023-03-05T01:52:55;97985.97;;;1.41;83.21
77799;BME280;66989;50.426;15.352;2023-03-05T01:55:26;97977.16;;;1.45;83.07
77799;BME280;66989;50.426;15.352;2023-03-05T01:57:55;97972.88;;;1.44;83.17
77799;BME280;66989;50.426;15.352;2023-03-05T02:00:26;97962.53;;;1.43;82.93
77799;BME280;66989;50.426;15.352;2023-03-05T02:02:55;97968.63;;;1.42;83.04
77799;BME280;66989;50.426;15.352;2023-03-05T02:05:28;97962.59;;;1.41;83.09
77799;BME280;66989;50.426;15.352;2023-03-05T02:08:16;97963.53;;;1.40;82.63
77799;BME280;66989;50.426;15.352;2023-03-05T02:10:48;97961.03;;;1.37;83.45
77799;BME280;66989;50.426;15.352;2023-03-05T02:13:18;97955.84;;;1.37;82.94
77799;BME280;66989;50.426;15.352;2023-03-05T02:15:44;97952.41;;;1.37;82.19
77799;BME280;66989;50.426;15.352;2023-03-05T02:18:11;97951.44;;;1.39;82.13
77799;BME280;66989;50.426;15.352;2023-03-05T02:23:13;97950.59;;;1.39;81.74
77799;BME280;66989;50.426;15.352;2023-03-05T02:25:39;97939.41;;;1.37;82.04
77799;BME280;66989;50.426;15.352;2023-03-05T02:28:08;97942.16;;;1.34;82.26
77799;BME280;66989;50.426;15.352;2023-03-05T02:30:36;97948.25;;;1.33;82.54
77799;BME280;66989;50.426;15.352;2023-03-05T02:33:03;97941.38;;;1.32;82.54
77799;BME280;66989;50.426;15.352;2023-03-05T02:35:28;97937.19;;;1.29;82.32
77799;BME280;66989;50.426;15.352;2023-03-05T02:37:54;97938.84;;;1.30;81.88
77799;BME280;66989;50.426;15.352;2023-03-05T02:40:19;97938.78;;;1.32;82.10
77799;BME280;66989;50.426;15.352;2023-03-05T02:42:45;97940.47;;;1.33;82.44
77799;BME280;66989;50.426;15.352;2023-03-05T02:45:12;97940.63;;;1.30;82.79
77799;BME280;66989;50.426;15.352;2023-03-05T02:47:37;97928.53;;;1.29;82.33
77799;BME280;66989;50.426;15.352;2023-03-05T02:50:03;97930.34;;;1.27;82.50
77799;BME280;66989;50.426;15.352;2023-03-05T02:52:30;97930.34;;;1.27;81.58
77799;BME280;66989;50.426;15.352;2023-03-05T02:54:55;97932.09;;;1.26;81.79
77799;BME280;66989;50.426;15.352;2023-03-05T02:57:21;97935.69;;;1.24;82.25
77799;BME280;66989;50.426;15.352;2023-03-05T02:59:46;97930.53;;;1.22;82.66
77799;BME280;66989;50.426;15.352;2023-03-05T03:02:12;97936.66;;;1.21;82.80
77799;BME280;66989;50.426;15.352;2023-03-05T03:04:37;97929.69;;;1.21;82.32
77799;BME280;66989;50.426;15.352;2023-03-05T03:07:03;97928.94;;;1.19;82.92
77799;BME280;66989;50.426;15.352;2023-03-05T03:09:28;97937.66;;;1.18;82.93
77799;BME280;66989;50.426;15.352;2023-03-05T03:11:54;97930.69;;;1.19;83.14
77799;BME280;66989;50.426;15.352;2023-03-05T03:14:19;97929.84;;;1.18;83.73
77799;BME280;66989;50.426;15.352;2023-03-05T03:16:45;97937.69;;;1.17;83.88
77799;BME280;66989;50.426;15.352;2023-03-05T03:19:10;97924.03;;;1.13;83.14
77799;BME280;66989;50.426;15.352;2023-03-05T03:21:36;97922.34;;;1.12;82.84
77799;BME280;66989;50.426;15.352;2023-03-05T03:24:01;97920.63;;;1.11;82.33
77799;BME280;66989;50.426;15.352;2023-03-05T03:26:27;97914.59;;;1.11;81.99
77799;BME280;66989;50.426;15.352;2023-03-05T03:28:52;97909.41;;;1.11;81.54
77799;BME280;66989;50.426;15.352;2023-03-05T03:31:18;97907.66;;;1.11;81.52
77799;BME280;66989;50.426;15.352;2023-03-05T03:33:43;97900.84;;;1.09;80.93
77799;BME280;66989;50.426;15.352;2023-03-05T03:36:09;97906.03;;;1.09;81.15
77799;BME280;66989;50.426;15.352;2023-03-05T03:38:35;97905.47;;;1.02;81.27
77799;BME280;66989;50.426;15.352;2023-03-05T03:41:00;97903.00;;;0.99;82.21
77799;BME280;66989;50.426;15.352;2023-03-05T03:43:25;97896.13;;;0.98;82.32
77799;BME280;66989;50.426;15.352;2023-03-05T03:45:51;97903.00;;;0.99;81.62
77799;BME280;66989;50.426;15.352;2023-03-05T03:48:16;97909.09;;;0.98;82.18
77799;BME280;66989;50.426;15.352;2023-03-05T03:50:42;97893.66;;;0.95;82.36
77799;BME280;66989;50.426;15.352;2023-03-05T03:53:08;97894.56;;;0.94;82.87
77799;BME280;66989;50.426;15.352;2023-03-05T03:55:38;97893.78;;;0.92;82.50
77799;BME280;66989;50.426;15.352;2023-03-05T03:58:04;97885.94;;;0.93;81.95
77799;BME280;66989;50.426;15.352;2023-03-05T04:00:29;97898.00;;;0.94;81.35
77799;BME280;66989;50.426;15.352;2023-03-05T04:02:55;97889.44;;;0.92;81.38
77799;BME280;66989;50.426;15.352;2023-03-05T04:05:20;97882.50;;;0.93;81.09
77799;BME280;66989;50.426;15.352;2023-03-05T04:07:45;97878.91;;;0.95;79.77
77799;BME280;66989;50.426;15.352;2023-03-05T04:10:11;97884.06;;;0.97;79.67
77799;BME280;66989;50.426;15.352;2023-03-05T04:12:36;97878.88;;;0.97;79.54
77799;BME280;66989;50.426;15.352;2023-03-05T04:15:02;97877.22;;;0.94;79.62
77799;BME280;66989;50.426;15.352;2023-03-05T04:17:28;97875.56;;;0.93;79.76
77799;BME280;66989;50.426;15.352;2023-03-05T04:19:53;97879.00;;;0.94;80.48
77799;BME280;66989;50.426;15.352;2023-03-05T04:22:19;97883.53;;;0.89;80.25
77799;BME280;66989;50.426;15.352;2023-03-05T04:24:44;97881.84;;;0.88;80.61
77799;BME280;66989;50.426;15.352;2023-03-05T04:27:10;97884.53;;;0.86;80.53
77799;BME280;66989;50.426;15.352;2023-03-05T04:29:35;97890.56;;;0.87;80.29
77799;BME280;66989;50.426;15.352;2023-03-05T04:32:01;97876.66;;;0.88;80.30
77799;BME280;66989;50.426;15.352;2023-03-05T04:34:26;97887.88;;;0.88;79.36
77799;BME280;66989;50.426;15.352;2023-03-05T04:36:52;97881.84;;;0.88;79.51
77799;BME280;66989;50.426;15.352;2023-03-05T04:39:17;97882.81;;;0.85;80.03
77799;BME280;66989;50.426;15.352;2023-03-05T04:41:47;97877.63;;;0.85;79.37
77799;BME280;66989;50.426;15.352;2023-03-05T04:44:13;97876.03;;;0.83;79.52
77799;BME280;66989;50.426;15.352;2023-03-05T04:46:39;97877.78;;;0.82;79.32
77799;BME280;66989;50.426;15.352;2023-03-05T04:49:04;97872.63;;;0.81;79.45
77799;BME280;66989;50.426;15.352;2023-03-05T04:51:30;97868.34;;;0.80;79.98
77799;BME280;66989;50.426;15.352;2023-03-05T04:53:55;97870.09;;;0.79;80.45
77799;BME280;66989;50.426;15.352;2023-03-05T04:56:20;97869.25;;;0.79;80.86
77799;BME280;66989;50.426;15.352;2023-03-05T04:58:46;97870.25;;;0.76;80.48
77799;BME280;66989;50.426;15.352;2023-03-05T05:01:12;97870.28;;;0.75;80.36
77799;BME280;66989;50.426;15.352;2023-03-05T05:03:37;97871.28;;;0.72;79.70
77799;BME280;66989;50.426;15.352;2023-03-05T05:06:03;97855.72;;;0.72;80.16
77799;BME280;66989;50.426;15.352;2023-03-05T05:08:29;97861.75;;;0.73;79.21
77799;BME280;66989;50.426;15.352;2023-03-05T05:11:00;97866.09;;;0.72;80.13
77799;BME280;66989;50.426;15.352;2023-03-05T05:13:26;97860.13;;;0.70;80.39
77799;BME280;66989;50.426;15.352;2023-03-05T05:15:51;97862.91;;;0.65;80.73
77799;BME280;66989;50.426;15.352;2023-03-05T05:18:17;97862.13;;;0.63;80.72
77799;BME280;66989;50.426;15.352;2023-03-05T05:20:42;97862.25;;;0.60;81.26
77799;BME280;66989;50.426;15.352;2023-03-05T05:23:08;97865.84;;;0.58;81.20
77799;BME280;66989;50.426;15.352;2023-03-05T05:25:33;97871.09;;;0.56;82.35
77799;BME280;66989;50.426;15.352;2023-03-05T05:27:59;97866.03;;;0.53;82.62
77799;BME280;66989;50.426;15.352;2023-03-05T05:30:24;97883.34;;;0.53;82.57
77799;BME280;66989;50.426;15.352;2023-03-05T05:32:50;97882.56;;;0.51;82.56
77799;BME280;66989;50.426;15.352;2023-03-05T05:35:15;97883.44;;;0.50;83.36
77799;BME280;66989;50.426;15.352;2023-03-05T05:37:40;97880.16;;;0.46;84.68
77799;BME280;66989;50.426;15.352;2023-03-05T05:40:06;97875.09;;;0.43;84.98
77799;BME280;66989;50.426;15.352;2023-03-05T05:42:32;97874.38;;;0.39;85.03
77799;BME280;66989;50.426;15.352;2023-03-05T05:44:58;97881.47;;;0.34;84.79
77799;BME280;66989;50.426;15.352;2023-03-05T05:47:24;97878.13;;;0.32;84.79
77799;BME280;66989;50.426;15.352;2023-03-05T05:49:49;97887.66;;;0.32;85.82
77799;BME280;66989;50.426;15.352;2023-03-05T05:52:15;97880.00;;;0.29;85.37
77799;BME280;66989;50.426;15.352;2023-03-05T05:54:41;97887.00;;;0.27;84.70
77799;BME280;66989;50.426;15.352;2023-03-05T05:57:06;97882.59;;;0.29;83.70
77799;BME280;66989;50.426;15.352;2023-03-05T05:59:32;97889.53;;;0.28;82.83
77799;BME280;66989;50.426;15.352;2023-03-05T06:01:57;97892.94;;;0.29;80.95
77799;BME280;66989;50.426;15.352;2023-03-05T06:04:24;97884.16;;;0.33;79.37
77799;BME280;66989;50.426;15.352;2023-03-05T06:06:49;97895.38;;;0.33;78.40
77799;BME280;66989;50.426;15.352;2023-03-05T06:09:15;97893.69;;;0.32;78.95
77799;BME280;66989;50.426;15.352;2023-03-05T06:11:40;97889.53;;;0.28;78.55
77799;BME280;66989;50.426;15.352;2023-03-05T06:14:06;97886.94;;;0.28;78.51
77799;BME280;66989;50.426;15.352;2023-03-05T06:16:33;97893.88;;;0.28;78.69
77799;BME280;66989;50.426;15.352;2023-03-05T06:18:59;97905.16;;;0.27;78.10
77799;BME280;66989;50.426;15.352;2023-03-05T06:21:28;97892.94;;;0.29;77.25
77799;BME280;66989;50.426;15.352;2023-03-05T06:23:54;97903.31;;;0.29;77.04
77799;BME280;66989;50.426;15.352;2023-03-05T06:26:20;97893.88;;;0.28;76.76
77799;BME280;66989;50.426;15.352;2023-03-05T06:28:46;97890.44;;;0.27;76.23
77799;BME280;66989;50.426;15.352;2023-03-05T06:31:14;97894.66;;;0.30;75.79
77799;BME280;66989;50.426;15.352;2023-03-05T06:33:40;97876.38;;;0.33;75.70
77799;BME280;66989;50.426;15.352;2023-03-05T06:36:08;97883.06;;;0.38;75.99
77799;BME280;66989;50.426;15.352;2023-03-05T06:38:35;97886.03;;;0.50;75.07
77799;BME280;66989;50.426;15.352;2023-03-05T06:41:02;97883.16;;;0.57;74.73
77799;BME280;66989;50.426;15.352;2023-03-05T06:43:30;97881.94;;;0.66;73.55
77799;BME280;66989;50.426;15.352;2023-03-05T06:46:06;97871.28;;;0.72;73.10
77799;BME280;66989;50.426;15.352;2023-03-05T06:48:31;97869.19;;;0.80;72.21
77799;BME280;66989;50.426;15.352;2023-03-05T06:50:57;97864.59;;;0.87;71.75
77799;BME280;66989;50.426;15.352;2023-03-05T06:53:23;97861.09;;;0.88;70.71
77799;BME280;66989;50.426;15.352;2023-03-05T06:55:53;97862.50;;;0.95;69.96
77799;BME280;66989;50.426;15.352;2023-03-05T06:58:19;97874.56;;;0.96;70.29
77799;BME280;66989;50.426;15.352;2023-03-05T07:00:45;97877.88;;;1.00;70.06
77799;BME280;66989;50.426;15.352;2023-03-05T07:03:11;97873.66;;;1.17;69.59
77799;BME280;66989;50.426;15.352;2023-03-05T07:05:40;97863.56;;;1.49;69.17
77799;BME280;66989;50.426;15.352;2023-03-05T07:08:07;97869.88;;;1.62;68.11
77799;BME280;66989;50.426;15.352;2023-03-05T07:10:40;97878.03;;;1.55;68.31
77799;BME280;66989;50.426;15.352;2023-03-05T07:13:07;97877.59;;;1.45;68.27
77799;BME280;66989;50.426;15.352;2023-03-05T07:15:33;97882.56;;;1.31;69.36
77799;BME280;66989;50.426;15.352;2023-03-05T07:17:58;97889.91;;;1.21;70.02
77799;BME280;66989;50.426;15.352;2023-03-05T07:20:24;97887.03;;;1.08;70.05
77799;BME280;66989;50.426;15.352;2023-03-05T07:22:49;97890.00;;;0.99;71.14
77799;BME280;66989;50.426;15.352;2023-03-05T07:25:15;97891.97;;;0.94;71.62
77799;BME280;66989;50.426;15.352;2023-03-05T07:27:46;97902.72;;;0.85;73.66
77799;BME280;66989;50.426;15.352;2023-03-05T07:30:12;97906.50;;;0.78;75.05
77799;BME280;66989;50.426;15.352;2023-03-05T07:32:37;97910.41;;;0.67;75.76
77799;BME280;66989;50.426;15.352;2023-03-05T07:35:03;97917.91;;;0.53;78.44
77799;BME280;66989;50.426;15.352;2023-03-05T07:37:29;97920.16;;;0.40;80.39
77799;BME280;66989;50.426;15.352;2023-03-05T07:39:55;97919.72;;;0.29;82.04
77799;BME280;66989;50.426;15.352;2023-03-05T07:42:20;97908.81;;;0.21;82.32
77799;BME280;66989;50.426;15.352;2023-03-05T07:44:46;97914.84;;;0.22;82.95
77799;BME280;66989;50.426;15.352;2023-03-05T07:47:11;97905.88;;;0.30;82.38
77799;BME280;66989;50.426;15.352;2023-03-05T07:49:36;97894.88;;;0.46;82.44
77799;BME280;66989;50.426;15.352;2023-03-05T07:52:05;97889.91;;;0.61;81.43
77799;BME280;66989;50.426;15.352;2023-03-05T07:54:30;97889.72;;;0.86;81.60
77799;BME280;66989;50.426;15.352;2023-03-05T07:56:55;97877.81;;;1.40;78.94
77799;BME280;66989;50.426;15.352;2023-03-05T07:59:21;97879.88;;;2.08;76.52
77799;BME280;66989;50.426;15.352;2023-03-05T08:01:46;97872.31;;;3.07;73.24
77799;BME280;66989;50.426;15.352;2023-03-05T08:04:11;97862.88;;;3.71;69.24
77799;BME280;66989;50.426;15.352;2023-03-05T08:06:40;97853.25;;;4.19;67.55
77799;BME280;66989;50.426;15.352;2023-03-05T08:09:06;97846.50;;;4.15;66.01
77799;BME280;66989;50.426;15.352;2023-03-05T08:11:31;97857.47;;;3.90;66.95
77799;BME280;66989;50.426;15.352;2023-03-05T08:13:57;97855.69;;;3.90;65.56
77799;BME280;66989;50.426;15.352;2023-03-05T08:16:24;97863.81;;;4.31;71.48
77799;BME280;66989;50.426;15.352;2023-03-05T08:18:54;97860.59;;;4.72;70.95
77799;BME280;66989;50.426;15.352;2023-03-05T08:21:23;97857.19;;;4.56;67.44
77799;BME280;66989;50.426;15.352;2023-03-05T08:23:54;97853.63;;;4.27;65.86
77799;BME280;66989;50.426;15.352;2023-03-05T08:26:21;97843.78;;;3.86;65.56
77799;BME280;66989;50.426;15.352;2023-03-05T08:28:47;97840.97;;;3.58;67.22
77799;BME280;66989;50.426;15.352;2023-03-05T08:31:14;97861.22;;;3.37;68.03
77799;BME280;66989;50.426;15.352;2023-03-05T08:33:40;97858.16;;;2.95;70.49
77799;BME280;66989;50.426;15.352;2023-03-05T08:36:07;97856.06;;;2.69;71.66
77799;BME280;66989;50.426;15.352;2023-03-05T08:38:33;97854.94;;;2.57;72.21
77799;BME280;66989;50.426;15.352;2023-03-05T08:40:58;97850.16;;;2.48;71.68
77799;BME280;66989;50.426;15.352;2023-03-05T08:43:24;97840.25;;;2.89;70.82
77799;BME280;66989;50.426;15.352;2023-03-05T08:45:50;97845.97;;;3.29;69.65
77799;BME280;66989;50.426;15.352;2023-03-05T08:48:17;97848.91;;;3.56;69.13
77799;BME280;66989;50.426;15.352;2023-03-05T08:50:42;97840.88;;;3.75;67.48
77799;BME280;66989;50.426;15.352;2023-03-05T08:53:08;97816.84;;;3.54;66.36
77799;BME280;66989;50.426;15.352;2023-03-05T08:55:33;97828.63;;;3.77;65.21
77799;BME280;66989;50.426;15.352;2023-03-05T08:57:59;97823.56;;;3.58;66.08
77799;BME280;66989;50.426;15.352;2023-03-05T09:00:24;97818.53;;;3.71;65.71
77799;BME280;66989;50.426;15.352;2023-03-05T09:02:49;97820.47;;;3.83;64.36
77799;BME280;66989;50.426;15.352;2023-03-05T09:05:15;97811.28;;;4.96;61.50
77799;BME280;66989;50.426;15.352;2023-03-05T09:07:41;97800.81;;;5.80;59.50
77799;BME280;66989;50.426;15.352;2023-03-05T09:10:07;97799.00;;;5.95;59.07
77799;BME280;66989;50.426;15.352;2023-03-05T09:12:35;97785.28;;;5.91;59.47
77799;BME280;66989;50.426;15.352;2023-03-05T09:15:02;97796.72;;;5.76;58.27
77799;BME280;66989;50.426;15.352;2023-03-05T09:17:28;97798.31;;;5.37;60.07
77799;BME280;66989;50.426;15.352;2023-03-05T09:19:53;97793.63;;;5.14;61.28
77799;BME280;66989;50.426;15.352;2023-03-05T09:22:18;97800.91;;;4.80;60.92
77799;BME280;66989;50.426;15.352;2023-03-05T09:24:44;97810.66;;;4.48;63.68
77799;BME280;66989;50.426;15.352;2023-03-05T09:27:09;97810.13;;;3.66;64.20
77799;BME280;66989;50.426;15.352;2023-03-05T09:29:35;97824.88;;;3.34;65.12
77799;BME280;66989;50.426;15.352;2023-03-05T09:32:00;97819.16;;;3.11;65.63
77799;BME280;66989;50.426;15.352;2023-03-05T09:34:25;97824.69;;;3.05;66.01
77799;BME280;66989;50.426;15.352;2023-03-05T09:36:51;97815.41;;;2.84;65.07
77799;BME280;66989;50.426;15.352;2023-03-05T09:39:16;97821.22;;;2.71;66.85
77799;BME280;66989;50.426;15.352;2023-03-05T09:41:56;97819.03;;;2.97;76.93
77799;BME280;66989;50.426;15.352;2023-03-05T09:47:16;97823.53;;;2.43;70.24
77799;BME280;66989;50.426;15.352;2023-03-05T09:52:56;97823.44;;;2.44;70.67
77799;BME280;66989;50.426;15.352;2023-03-05T09:55:26;97821.16;;;2.56;71.10
77799;BME280;66989;50.426;15.352;2023-03-05T09:57:56;97826.78;;;2.81;70.98
77799;BME280;66989;50.426;15.352;2023-03-05T10:00:46;97816.13;;;2.86;69.50
77799;BME280;66989;50.426;15.352;2023-03-05T10:03:33;97816.19;;;3.01;69.37
77799;BME280;66989;50.426;15.352;2023-03-05T10:08:47;97795.13;;;3.22;68.44
77799;BME280;66989;50.426;15.352;2023-03-05T10:13:48;97793.13;;;3.43;69.45
77799;BME280;66989;50.426;15.352;2023-03-05T10:16:48;97788.34;;;3.67;68.67
77799;BME280;66989;50.426;15.352;2023-03-05T10:19:33;97787.06;;;3.74;67.85
77799;BME280;66989;50.426;15.352;2023-03-05T10:22:28;97776.81;;;3.87;67.90
77799;BME280;66989;50.426;15.352;2023-03-05T10:25:09;97776.25;;;3.96;65.64
77799;BME280;66989;50.426;15.352;2023-03-05T10:30:25;97771.25;;;4.23;63.66
77799;BME280;66989;50.426;15.352;2023-03-05T10:36:40;97771.56;;;4.47;62.88
77799;BME280;66989;50.426;15.352;2023-03-05T10:44:29;97756.22;;;4.56;63.39
77799;BME280;66989;50.426;15.352;2023-03-05T10:46:57;97748.94;;;5.04;63.47
77799;BME280;66989;50.426;15.352;2023-03-05T10:49:35;97746.97;;;5.36;61.73
77799;BME280;66989;50.426;15.352;2023-03-05T10:52:13;97741.75;;;5.63;58.73
77799;BME280;66989;50.426;15.352;2023-03-05T10:54:41;97740.94;;;5.49;59.57
77799;BME280;66989;50.426;15.352;2023-03-05T10:59:36;97727.88;;;5.07;60.14
77799;BME280;66989;50.426;15.352;2023-03-05T11:02:07;97736.19;;;4.85;61.93
77799;BME280;66989;50.426;15.352;2023-03-05T11:04:37;97739.06;;;4.81;62.72
77799;BME280;66989;50.426;15.352;2023-03-05T11:07:30;97726.47;;;4.45;62.91
77799;BME280;66989;50.426;15.352;2023-03-05T11:12:27;97722.31;;;4.12;61.91
77799;BME280;66989;50.426;15.352;2023-03-05T11:17:34;97709.75;;;3.89;63.21
77799;BME280;66989;50.426;15.352;2023-03-05T11:25:28;97707.03;;;3.76;65.02
77799;BME280;66989;50.426;15.352;2023-03-05T11:27:55;97708.03;;;3.73;64.05
77799;BME280;66989;50.426;15.352;2023-03-05T11:30:23;97710.41;;;3.62;66.63
77799;BME280;66989;50.426;15.352;2023-03-05T11:32:49;97702.75;;;3.59;67.84
77799;BME280;66989;50.426;15.352;2023-03-05T11:35:33;97705.88;;;3.34;70.11
77799;BME280;66989;50.426;15.352;2023-03-05T11:38:01;97713.63;;;3.04;73.53
77799;BME280;66989;50.426;15.352;2023-03-05T11:40:28;97693.28;;;2.79;75.71
77799;BME280;66989;50.426;15.352;2023-03-05T11:42:58;97710.22;;;2.70;76.78
77799;BME280;66989;50.426;15.352;2023-03-05T11:45:33;97703.72;;;2.62;77.18
77799;BME280;66989;50.426;15.352;2023-03-05T11:48:08;97707.78;;;2.67;77.79
77799;BME280;66989;50.426;15.352;2023-03-05T11:50:37;97697.78;;;2.75;77.53
77799;BME280;66989;50.426;15.352;2023-03-05T11:53:21;97691.84;;;2.73;77.23
77799;BME280;66989;50.426;15.352;2023-03-05T11:55:53;97696.13;;;2.74;78.25
77799;BME280;66989;50.426;15.352;2023-03-05T12:01:20;97684.97;;;2.72;77.07
77799;BME280;66989;50.426;15.352;2023-03-05T12:03:47;97681.69;;;2.69;78.02
77799;BME280;66989;50.426;15.352;2023-03-05T12:06:24;97683.91;;;2.59;79.24
77799;BME280;66989;50.426;15.352;2023-03-05T12:08:57;97670.47;;;2.67;79.47
77799;BME280;66989;50.426;15.352;2023-03-05T12:11:27;97673.28;;;2.80;78.30
77799;BME280;66989;50.426;15.352;2023-03-05T12:19:44;97641.53;;;4.25;69.59
77799;BME280;66989;50.426;15.352;2023-03-05T12:22:21;97628.56;;;4.80;66.98
77799;BME280;66989;50.426;15.352;2023-03-05T12:24:47;97623.25;;;5.09;64.99
77799;BME280;66989;50.426;15.352;2023-03-05T12:27:16;97624.47;;;5.30;64.21
77799;BME280;66989;50.426;15.352;2023-03-05T12:29:55;97630.78;;;5.40;64.07
77799;BME280;66989;50.426;15.352;2023-03-05T12:55:36;97599.09;;;5.05;63.23
77799;BME280;66989;50.426;15.352;2023-03-05T12:58:20;97604.25;;;5.47;61.38
77799;BME280;66989;50.426;15.352;2023-03-05T13:03:30;97592.44;;;5.54;60.61
77799;BME280;66989;50.426;15.352;2023-03-05T13:05:58;97588.91;;;5.55;60.44
77799;BME280;66989;50.426;15.352;2023-03-05T13:08:30;97586.81;;;5.60;60.28
77799;BME280;66989;50.426;15.352;2023-03-05T13:11:08;97581.75;;;5.44;59.50
77799;BME280;66989;50.426;15.352;2023-03-05T13:13:41;97582.81;;;5.42;57.47
77799;BME280;66989;50.426;15.352;2023-03-05T13:16:23;97576.56;;;5.17;59.11
77799;BME280;66989;50.426;15.352;2023-03-05T13:18:52;97581.50;;;4.95;60.20
77799;BME280;66989;50.426;15.352;2023-03-05T13:21:23;97576.72;;;4.74;59.03
77799;BME280;66989;50.426;15.352;2023-03-05T13:23:54;97579.84;;;4.24;59.34
77799;BME280;66989;50.426;15.352;2023-03-05T13:26:37;97588.47;;;3.96;60.34
77799;BME280;66989;50.426;15.352;2023-03-05T13:31:50;97588.53;;;3.51;62.80
77799;BME280;66989;50.426;15.352;2023-03-05T13:34:35;97583.56;;;3.47;63.83
77799;BME280;66989;50.426;15.352;2023-03-05T13:37:26;97580.56;;;3.39;64.12
77799;BME280;66989;50.426;15.352;2023-03-05T13:40:30;97580.22;;;3.45;63.87
77799;BME280;66989;50.426;15.352;2023-03-05T13:43:09;97588.31;;;3.54;63.21
77799;BME280;66989;50.426;15.352;2023-03-05T13:45:36;97585.19;;;3.64;63.43
77799;BME280;66989;50.426;15.352;2023-03-05T13:48:04;97584.50;;;3.60;61.77
77799;BME280;66989;50.426;15.352;2023-03-05T13:50:36;97584.34;;;3.63;60.48
77799;BME280;66989;50.426;15.352;2023-03-05T13:53:30;97580.06;;;3.62;60.86
77799;BME280;66989;50.426;15.352;2023-03-05T13:56:04;97583.16;;;3.69;60.27
77799;BME280;66989;50.426;15.352;2023-03-05T14:03:41;97572.81;;;3.67;60.78
77799;BME280;66989;50.426;15.352;2023-03-05T14:06:10;97571.31;;;3.63;60.88
77799;BME280;66989;50.426;15.352;2023-03-05T14:08:38;97570.22;;;3.67;60.94
77799;BME280;66989;50.426;15.352;2023-03-05T14:11:14;97564.88;;;3.54;62.30
77799;BME280;66989;50.426;15.352;2023-03-05T14:13:41;97568.78;;;3.47;62.21
77799;BME280;66989;50.426;15.352;2023-03-05T14:16:11;97569.97;;;3.42;62.44
77799;BME280;66989;50.426;15.352;2023-03-05T14:18:37;97563.00;;;3.42;62.83
77799;BME280;66989;50.426;15.352;2023-03-05T14:21:10;97555.00;;;3.45;62.77
77799;BME280;66989;50.426;15.352;2023-03-05T14:23:46;97564.97;;;3.53;62.87
77799;BME280;66989;50.426;15.352;2023-03-05T14:26:17;97554.72;;;3.50;62.76